createdAt,value
2019-02-26T00:01:06.327Z,63.23
2019-02-26T00:03:35.693Z,66.30
2019-02-26T00:06:05.166Z,59.83
2019-02-26T00:08:34.699Z,62.43
2019-02-26T00:11:06.072Z,65.40
2019-02-26T00:13:36.559Z,61.00
2019-02-26T00:16:08.010Z,62.10
2019-02-26T00:18:37.436Z,62.07
2019-02-26T00:21:06.977Z,63.43
2019-02-26T00:23:36.447Z,63.20
2019-02-26T00:26:05.929Z,62.10
2019-02-26T00:28:36.601Z,63.53
2019-02-26T00:31:06.551Z,60.70
2019-02-26T00:33:36.078Z,61.47
2019-02-26T00:36:07.136Z,61.83
2019-02-26T00:38:37.737Z,64.27
2019-02-26T00:41:07.801Z,66.17
2019-02-26T00:43:37.206Z,62.53
2019-02-26T00:46:08.577Z,64.07
2019-02-26T00:48:40.599Z,62.00
2019-02-26T00:51:09.197Z,60.47
2019-02-26T00:53:38.560Z,58.33
2019-02-26T00:56:10.273Z,59.37
2019-02-26T00:58:41.068Z,57.80
2019-02-26T01:01:12.424Z,50.47
2019-02-26T01:03:43.083Z,48.47
2019-02-26T01:06:12.591Z,46.43
2019-02-26T01:08:43.098Z,46.23
2019-02-26T01:11:13.232Z,47.27
2019-02-26T01:13:42.770Z,43.77
2019-02-26T01:16:12.311Z,42.60
2019-02-26T01:18:42.197Z,42.07
2019-02-26T01:21:12.981Z,41.10
2019-02-26T01:23:42.504Z,38.20
2019-02-26T01:26:12.534Z,38.27
2019-02-26T01:28:44.142Z,39.47
2019-02-26T01:31:13.469Z,43.23
2019-02-26T01:33:42.905Z,44.73
2019-02-26T01:36:13.923Z,55.87
2019-02-26T01:38:45.873Z,64.83
2019-02-26T01:41:15.567Z,67.43
2019-02-26T01:43:45.538Z,68.30
2019-02-26T01:46:16.915Z,68.53
2019-02-26T01:48:46.006Z,67.50
2019-02-26T01:51:17.104Z,62.23
2019-02-26T01:53:49.071Z,60.47
2019-02-26T01:56:20.048Z,64.33
2019-02-26T01:58:56.352Z,61.87
2019-02-26T02:01:23.880Z,63.43
2019-02-26T02:03:55.842Z,61.43
2019-02-26T02:06:24.093Z,55.60
2019-02-26T02:08:55.496Z,49.23
2019-02-26T02:11:28.271Z,48.57
2019-02-26T02:13:55.764Z,50.93
2019-02-26T02:16:28.551Z,51.73
2019-02-26T02:18:58.183Z,50.77
2019-02-26T02:21:30.896Z,47.20
2019-02-26T02:23:59.383Z,46.57
2019-02-26T02:26:28.982Z,44.13
2019-02-26T02:28:58.378Z,45.37
2019-02-26T02:31:31.403Z,41.93
2019-02-26T02:33:59.331Z,38.77
2019-02-26T02:36:28.788Z,37.33
2019-02-26T02:38:58.392Z,34.53
2019-02-26T02:41:27.804Z,36.80
2019-02-26T02:43:57.409Z,39.40
2019-02-26T02:46:26.848Z,40.07
2019-02-26T02:48:56.300Z,42.53
2019-02-26T02:51:27.717Z,45.07
2019-02-26T02:53:59.227Z,45.70
2019-02-26T02:56:28.086Z,50.03
2019-02-26T02:58:57.490Z,50.10
2019-02-26T03:01:28.673Z,54.40
2019-02-26T03:04:00.548Z,56.70
2019-02-26T03:06:30.566Z,55.93
2019-02-26T03:09:00.631Z,56.27
2019-02-26T03:11:30.112Z,53.90
2019-02-26T03:13:59.518Z,55.23
2019-02-26T03:16:29.128Z,58.07
2019-02-26T03:18:58.550Z,62.13
2019-02-26T03:21:30.512Z,63.70
2019-02-26T03:24:00.866Z,59.50
2019-02-26T03:26:30.230Z,57.87
2019-02-26T03:28:59.720Z,56.00
2019-02-26T03:31:34.294Z,55.23
2019-02-26T03:34:08.617Z,60.07
2019-02-26T03:36:34.250Z,61.80
2019-02-26T03:39:03.669Z,62.10
2019-02-26T03:41:33.499Z,59.50
2019-02-26T03:44:03.937Z,58.73
2019-02-26T03:46:34.001Z,58.40
2019-02-26T03:49:03.662Z,54.63
2019-02-26T03:51:33.201Z,52.80
2019-02-26T03:54:04.154Z,53.87
2019-02-26T03:56:33.759Z,53.73
2019-02-26T03:59:06.316Z,55.33
2019-02-26T04:01:34.734Z,57.47
2019-02-26T04:04:07.688Z,56.87
2019-02-26T04:06:38.950Z,57.87
2019-02-26T04:09:09.156Z,59.70
2019-02-26T04:11:44.775Z,60.37
2019-02-26T04:14:12.581Z,62.33
2019-02-26T04:16:43.654Z,62.37
2019-02-26T04:19:14.475Z,63.43
2019-02-26T04:22:23.349Z,59.90
2019-02-26T04:24:55.052Z,56.30
2019-02-26T04:27:49.021Z,51.80
2019-02-26T04:30:41.716Z,52.10
2019-02-26T04:33:21.696Z,52.47
2019-02-26T04:36:20.442Z,53.87
2019-02-26T04:39:13.648Z,53.67
2019-02-26T04:41:48.002Z,54.97
2019-02-26T04:44:34.284Z,57.10
2019-02-26T04:47:05.869Z,64.83
2019-02-26T04:49:38.378Z,64.63
2019-02-26T04:52:10.330Z,68.90
2019-02-26T04:54:39.531Z,68.17
2019-02-26T04:57:08.781Z,63.63
2019-02-26T04:59:41.184Z,58.83
2019-02-26T05:02:09.457Z,54.77
2019-02-26T05:04:40.059Z,55.63
2019-02-26T05:07:13.216Z,55.00
2019-02-26T05:09:41.355Z,55.23
2019-02-26T05:12:10.898Z,55.53
2019-02-26T05:14:40.262Z,56.23
2019-02-26T05:17:09.698Z,54.10
2019-02-26T05:19:39.510Z,54.53
2019-02-26T05:22:10.259Z,55.53
2019-02-26T05:24:42.438Z,50.20
2019-02-26T05:27:19.746Z,51.00
2019-02-26T05:29:49.743Z,52.97
2019-02-26T05:32:21.795Z,56.60
2019-02-26T05:34:50.919Z,58.00
2019-02-26T05:37:20.503Z,50.43
2019-02-26T05:39:51.558Z,47.63
2019-02-26T05:42:21.070Z,51.33
2019-02-26T05:44:53.831Z,46.67
2019-02-26T05:47:23.934Z,41.70
2019-02-26T05:49:52.612Z,43.57
2019-02-26T05:52:24.352Z,42.80
2019-02-26T05:54:53.236Z,38.43
2019-02-26T05:57:31.278Z,37.50
2019-02-26T05:59:55.429Z,36.80
2019-02-26T06:02:25.074Z,37.23
2019-02-26T06:04:54.557Z,39.73
2019-02-26T06:07:27.448Z,42.90
2019-02-26T06:09:56.375Z,44.83
2019-02-26T06:12:26.307Z,47.90
2019-02-26T06:15:00.285Z,54.73
2019-02-26T06:17:27.472Z,54.07
2019-02-26T06:20:02.083Z,54.70
2019-02-26T06:22:31.877Z,54.23
2019-02-26T06:25:07.054Z,57.30
2019-02-26T06:27:33.211Z,59.40
2019-02-26T06:30:05.942Z,59.00
2019-02-26T06:32:36.707Z,56.90
2019-02-26T06:35:10.845Z,53.83
2019-02-26T06:37:40.298Z,55.57
2019-02-26T06:40:12.756Z,52.33
2019-02-26T06:42:42.206Z,50.50
2019-02-26T06:45:16.005Z,52.90
2019-02-26T06:47:45.749Z,52.90
2019-02-26T06:50:18.738Z,53.57
2019-02-26T06:52:48.587Z,52.27
2019-02-26T06:55:18.475Z,51.80
2019-02-26T06:57:50.890Z,54.83
2019-02-26T07:00:23.787Z,56.90
2019-02-26T07:02:51.777Z,55.33
2019-02-26T07:05:23.931Z,53.67
2019-02-26T07:07:54.161Z,55.47
2019-02-26T07:10:26.121Z,58.77
2019-02-26T07:12:54.534Z,52.83
2019-02-26T07:15:24.017Z,52.37
2019-02-26T07:17:53.452Z,55.57
2019-02-26T07:20:22.945Z,55.33
2019-02-26T07:22:52.377Z,54.03
2019-02-26T07:25:21.783Z,57.30
2019-02-26T07:27:51.749Z,55.60
2019-02-26T07:30:22.247Z,63.90
2019-02-26T07:32:51.633Z,64.90
2019-02-26T07:35:21.140Z,63.23
2019-02-26T07:37:52.262Z,58.60
2019-02-26T07:40:21.831Z,55.07
2019-02-26T07:42:52.467Z,56.03
2019-02-26T07:45:22.882Z,53.37
2019-02-26T07:47:55.475Z,53.13
2019-02-26T07:50:24.225Z,57.30
2019-02-26T07:52:55.263Z,58.37
2019-02-26T07:55:24.696Z,59.97
2019-02-26T07:57:54.636Z,59.30
2019-02-26T08:00:24.765Z,60.53
2019-02-26T08:02:57.860Z,62.83
2019-02-26T08:05:28.334Z,64.90
2019-02-26T08:07:56.686Z,64.87
2019-02-26T08:10:26.204Z,62.23
2019-02-26T08:12:56.660Z,60.27
2019-02-26T08:15:27.868Z,60.17
2019-02-26T08:18:00.398Z,58.90
2019-02-26T08:20:30.432Z,58.03
2019-02-26T08:23:01.373Z,58.13
2019-02-26T08:25:30.998Z,62.03
2019-02-26T08:28:01.324Z,62.77
2019-02-26T08:30:30.940Z,59.10
2019-02-26T08:33:04.692Z,57.97
2019-02-26T08:35:33.114Z,56.00
2019-02-26T08:38:05.670Z,56.97
2019-02-26T08:40:33.728Z,55.53
2019-02-26T08:43:03.401Z,54.20
2019-02-26T08:45:33.051Z,51.37
2019-02-26T08:48:02.498Z,51.97
2019-02-26T08:50:33.315Z,52.93
2019-02-26T08:53:03.323Z,51.43
2019-02-26T08:55:32.788Z,51.33
2019-02-26T08:58:02.215Z,51.23
2019-02-26T09:00:31.738Z,48.50
2019-02-26T09:03:01.246Z,46.40
2019-02-26T09:05:34.005Z,45.33
2019-02-26T09:08:01.822Z,42.80
2019-02-26T09:10:31.702Z,43.70
2019-02-26T09:13:01.140Z,41.97
2019-02-26T09:15:31.287Z,42.23
2019-02-26T09:18:01.925Z,42.70
2019-02-26T09:20:31.392Z,42.83
2019-02-26T09:23:01.481Z,43.57
2019-02-26T09:25:31.587Z,43.00
2019-02-26T09:28:02.321Z,41.47
2019-02-26T09:30:33.520Z,44.00
2019-02-26T09:33:03.431Z,41.97
2019-02-26T09:35:34.168Z,43.80
2019-02-26T09:38:03.706Z,41.43
2019-02-26T09:40:34.420Z,40.93
2019-02-26T09:43:06.057Z,39.43
2019-02-26T09:45:35.453Z,36.13
2019-02-26T09:48:04.960Z,36.97
2019-02-26T09:50:36.727Z,36.13
2019-02-26T09:53:05.892Z,35.83
2019-02-26T09:55:35.351Z,35.33
2019-02-26T09:58:04.848Z,37.43
2019-02-26T10:00:34.395Z,39.73
2019-02-26T10:03:06.161Z,38.60
2019-02-26T10:05:36.996Z,38.33
2019-02-26T10:08:06.439Z,37.67
2019-02-26T10:10:37.534Z,36.73
2019-02-26T10:13:07.057Z,36.17
2019-02-26T10:15:39.323Z,36.17
2019-02-26T10:18:09.300Z,35.90
2019-02-26T10:20:42.709Z,31.20
2019-02-26T10:23:11.799Z,31.77
2019-02-26T10:25:41.311Z,32.40
2019-02-26T10:28:11.720Z,32.63
2019-02-26T10:30:41.870Z,32.17
2019-02-26T10:33:11.443Z,33.30
2019-02-26T10:35:44.369Z,32.70
2019-02-26T10:38:12.228Z,29.80
2019-02-26T10:40:53.275Z,29.00
2019-02-26T10:43:12.945Z,30.50
2019-02-26T10:45:44.792Z,28.60
2019-02-26T10:48:15.967Z,28.87
2019-02-26T10:50:48.285Z,29.60
2019-02-26T10:53:17.265Z,29.97
2019-02-26T10:55:47.077Z,29.80
2019-02-26T10:58:16.505Z,29.87
2019-02-26T11:00:46.863Z,30.60
2019-02-26T11:03:17.324Z,27.93
2019-02-26T11:05:48.530Z,28.63
2019-02-26T11:08:20.797Z,28.90
2019-02-26T11:10:52.214Z,27.77
2019-02-26T11:13:24.906Z,25.70
2019-02-26T11:15:53.986Z,27.10
2019-02-26T11:18:23.703Z,26.23
2019-02-26T11:20:56.141Z,26.73
2019-02-26T11:23:30.940Z,25.90
2019-02-26T11:25:55.882Z,26.43
2019-02-26T11:28:29.710Z,25.93
2019-02-26T11:30:56.745Z,25.67
2019-02-26T11:33:26.294Z,24.13
2019-02-26T11:35:56.842Z,24.83
2019-02-26T11:38:26.258Z,24.40
2019-02-26T11:40:55.782Z,26.37
2019-02-26T11:43:27.127Z,23.73
2019-02-26T11:45:58.868Z,23.37
2019-02-26T11:48:29.062Z,23.37
2019-02-26T11:51:00.803Z,20.37
2019-02-26T11:53:30.373Z,20.67
2019-02-26T11:56:01.866Z,21.00
2019-02-26T11:58:31.434Z,19.93
2019-02-26T12:01:00.943Z,21.93
2019-02-26T12:03:33.355Z,21.73
2019-02-26T12:06:02.225Z,20.90
2019-02-26T12:08:31.994Z,22.53
2019-02-26T12:11:03.996Z,22.80
2019-02-26T12:13:32.584Z,21.30
2019-02-26T12:16:01.976Z,20.73
2019-02-26T12:18:31.452Z,20.63
2019-02-26T12:21:03.465Z,20.67
2019-02-26T12:23:32.014Z,20.00
2019-02-26T12:26:03.785Z,19.60
2019-02-26T12:28:35.926Z,18.10
2019-02-26T12:31:07.049Z,21.43
2019-02-26T12:33:35.472Z,22.77
2019-02-26T12:36:07.541Z,20.73
2019-02-26T12:38:37.709Z,19.40
2019-02-26T12:41:09.000Z,21.13
2019-02-26T12:43:42.634Z,19.47
2019-02-26T12:46:09.495Z,15.60
2019-02-26T12:48:41.794Z,19.80
2019-02-26T12:51:10.033Z,19.47
2019-02-26T12:56:20.563Z,18.83
2019-02-26T12:58:52.019Z,21.27
2019-02-26T13:01:21.801Z,19.37
2019-02-26T13:03:54.793Z,16.50
2019-02-26T13:06:23.032Z,17.83
2019-02-26T13:08:52.547Z,17.57
2019-02-26T13:11:25.081Z,17.87
2019-02-26T13:13:54.615Z,17.90
2019-02-26T13:16:24.095Z,18.37
2019-02-26T13:18:59.499Z,18.07
2019-02-26T13:21:24.714Z,18.37
2019-02-26T13:23:58.775Z,17.93
2019-02-26T13:26:25.447Z,17.80
2019-02-26T13:28:56.079Z,17.20
2019-02-26T13:31:26.104Z,18.60
2019-02-26T13:33:55.568Z,17.07
2019-02-26T13:36:25.138Z,17.00
2019-02-26T13:38:54.526Z,17.67
2019-02-26T13:41:30.103Z,16.87
2019-02-26T13:43:55.229Z,18.77
2019-02-26T13:46:24.853Z,27.47
2019-02-26T13:48:54.227Z,28.83
2019-02-26T13:51:23.699Z,27.13
2019-02-26T13:53:53.146Z,28.73
2019-02-26T13:56:22.864Z,30.60
2019-02-26T13:58:52.387Z,30.27
2019-02-26T14:01:21.933Z,29.83
2019-02-26T14:03:51.460Z,31.90
2019-02-26T14:06:21.038Z,29.37
2019-02-26T14:08:50.490Z,26.93
2019-02-26T14:11:20.043Z,26.50
2019-02-26T14:13:49.475Z,26.53
2019-02-26T14:16:19.061Z,23.37
2019-02-26T14:18:48.503Z,24.80
2019-02-26T14:21:18.118Z,22.53
2019-02-26T14:23:47.600Z,22.87
2019-02-26T14:26:17.184Z,21.87
2019-02-26T14:28:46.585Z,21.50
2019-02-26T14:31:16.079Z,23.67
2019-02-26T14:33:47.059Z,23.70
2019-02-26T14:36:16.467Z,29.33
2019-02-26T14:38:45.915Z,31.70
2019-02-26T14:41:15.372Z,30.17
2019-02-26T14:43:44.989Z,31.20
2019-02-26T14:46:14.475Z,31.00
2019-02-26T14:48:43.918Z,30.67
2019-02-26T14:51:13.385Z,31.60
2019-02-26T14:53:42.910Z,32.07
2019-02-26T14:56:12.678Z,32.50
2019-02-26T14:58:42.191Z,30.87
2019-02-26T15:01:11.677Z,30.90
2019-02-26T15:03:41.131Z,30.77
2019-02-26T15:06:10.972Z,28.87
2019-02-26T15:08:41.320Z,25.27
2019-02-26T15:11:11.110Z,23.10
2019-02-26T15:13:40.535Z,22.60
2019-02-26T15:16:10.404Z,23.90
2019-02-26T15:18:39.814Z,23.13
2019-02-26T15:21:09.289Z,21.80
2019-02-26T15:23:38.767Z,23.10
2019-02-26T15:26:08.751Z,20.70
2019-02-26T15:28:38.370Z,22.73
2019-02-26T15:31:08.571Z,21.63
2019-02-26T15:33:38.189Z,20.23
2019-02-26T15:36:09.445Z,23.33
2019-02-26T15:38:38.950Z,23.60
2019-02-26T15:41:08.663Z,24.27
2019-02-26T15:43:38.206Z,26.03
2019-02-26T15:46:07.703Z,25.37
2019-02-26T15:48:37.303Z,25.23
2019-02-26T15:51:14.085Z,26.10
2019-02-26T15:53:37.834Z,25.97
2019-02-26T15:56:07.322Z,26.70
2019-02-26T15:58:36.789Z,28.00
2019-02-26T16:01:08.910Z,27.07
2019-02-26T16:03:38.540Z,27.33
2019-02-26T16:06:08.023Z,26.80
2019-02-26T16:08:38.620Z,27.17
2019-02-26T16:11:08.264Z,26.03
2019-02-26T16:13:37.699Z,25.70
2019-02-26T16:16:07.176Z,27.03
2019-02-26T16:18:36.548Z,25.57
2019-02-26T16:21:06.027Z,25.37
2019-02-26T16:23:35.465Z,24.23
2019-02-26T16:26:05.665Z,24.20
2019-02-26T16:28:36.155Z,23.40
2019-02-26T16:31:06.381Z,23.13
2019-02-26T16:33:36.745Z,23.13
2019-02-26T16:36:06.308Z,24.60
2019-02-26T16:38:35.921Z,25.17
2019-02-26T16:41:05.615Z,24.77
2019-02-26T16:43:35.163Z,26.83
2019-02-26T16:46:08.366Z,27.83
2019-02-26T16:48:36.022Z,26.20
2019-02-26T16:51:05.576Z,28.87
2019-02-26T16:53:36.585Z,30.43
2019-02-26T16:56:07.819Z,30.80
2019-02-26T16:58:37.402Z,30.80
2019-02-26T17:01:07.732Z,34.20
2019-02-26T17:03:40.447Z,36.20
2019-02-26T17:06:09.923Z,36.20
2019-02-26T17:08:40.881Z,35.90
2019-02-26T17:11:13.351Z,35.90
2019-02-26T17:13:44.176Z,35.73
2019-02-26T17:16:13.720Z,37.97
2019-02-26T17:18:43.406Z,36.80
2019-02-26T17:21:12.992Z,35.73
2019-02-26T17:23:44.845Z,35.77
2019-02-26T17:26:13.677Z,36.60
2019-02-26T17:28:44.142Z,36.33
2019-02-26T17:31:13.671Z,35.53
2019-02-26T17:33:44.749Z,36.03
2019-02-26T17:36:14.436Z,35.83
2019-02-26T17:38:43.867Z,35.13
2019-02-26T17:41:13.411Z,35.10
2019-02-26T17:43:42.778Z,33.90
2019-02-26T17:46:12.284Z,34.27
2019-02-26T17:48:43.736Z,36.17
2019-02-26T17:51:12.964Z,34.27
2019-02-26T17:53:42.339Z,34.53
2019-02-26T17:56:12.331Z,33.47
2019-02-26T17:58:43.860Z,34.63
2019-02-26T18:01:12.866Z,36.43
2019-02-26T18:03:44.407Z,35.93
2019-02-26T18:06:13.323Z,32.97
2019-02-26T18:08:42.682Z,33.70
2019-02-26T18:11:12.086Z,34.20
2019-02-26T18:13:41.591Z,33.93
2019-02-26T18:16:11.137Z,33.23
2019-02-26T18:18:40.504Z,32.53
2019-02-26T18:21:09.989Z,37.33
2019-02-26T18:23:39.565Z,40.00
2019-02-26T18:26:09.359Z,39.70
2019-02-26T18:28:38.724Z,39.20
2019-02-26T18:31:08.259Z,38.67
2019-02-26T18:33:37.645Z,36.27
2019-02-26T18:36:07.175Z,38.57
2019-02-26T18:38:36.534Z,39.33
2019-02-26T18:41:06.079Z,41.00
2019-02-26T18:43:35.450Z,38.23
2019-02-26T18:46:05.206Z,37.47
2019-02-26T18:48:34.838Z,37.93
2019-02-26T18:51:04.305Z,36.67
2019-02-26T18:53:33.660Z,38.40
2019-02-26T18:56:04.197Z,35.40
2019-02-26T18:58:34.471Z,34.50
2019-02-26T19:01:04.000Z,36.00
2019-02-26T19:03:33.568Z,37.83
2019-02-26T19:06:03.601Z,38.13
2019-02-26T19:08:34.645Z,35.40
2019-02-26T19:11:04.481Z,38.37
2019-02-26T19:13:35.583Z,36.77
2019-02-26T19:16:05.264Z,37.67
2019-02-26T19:18:38.481Z,38.37
2019-02-26T19:21:07.984Z,37.60
2019-02-26T19:23:37.433Z,38.57
2019-02-26T19:26:06.983Z,36.70
2019-02-26T19:28:36.380Z,36.90
2019-02-26T19:31:09.369Z,40.83
2019-02-26T19:33:37.786Z,41.90
2019-02-26T19:36:07.340Z,42.23
2019-02-26T19:38:36.792Z,42.83
2019-02-26T19:41:12.669Z,39.67
2019-02-26T19:43:44.271Z,42.90
2019-02-26T19:46:16.863Z,43.47
2019-02-26T19:48:44.810Z,42.77
2019-02-26T19:51:14.453Z,42.07
2019-02-26T19:53:43.963Z,42.17
2019-02-26T19:56:13.397Z,39.83
2019-02-26T19:58:42.803Z,39.63
2019-02-26T20:01:12.254Z,40.37
2019-02-26T20:03:41.795Z,35.80
2019-02-26T20:06:11.170Z,34.47
2019-02-26T20:08:40.634Z,36.83
2019-02-26T20:11:09.991Z,37.70
2019-02-26T20:13:42.160Z,35.83
2019-02-26T20:16:10.580Z,34.30
2019-02-26T20:18:40.131Z,32.73
2019-02-26T20:21:09.516Z,32.17
2019-02-26T20:23:41.810Z,32.73
2019-02-26T20:26:10.120Z,34.57
2019-02-26T20:28:41.003Z,35.63
2019-02-26T20:31:10.459Z,39.40
2019-02-26T20:33:39.856Z,40.90
2019-02-26T20:36:09.579Z,41.33
2019-02-26T20:38:39.796Z,39.87
2019-02-26T20:41:09.264Z,37.83
2019-02-26T20:43:38.624Z,37.50
2019-02-26T20:46:08.050Z,38.37
2019-02-26T20:48:37.794Z,35.17
2019-02-26T20:51:07.408Z,32.33
2019-02-26T20:53:38.999Z,33.07
2019-02-26T20:56:07.980Z,34.13
2019-02-26T20:58:37.416Z,34.87
2019-02-26T21:01:07.099Z,34.60
2019-02-26T21:03:36.455Z,38.60
2019-02-26T21:06:05.859Z,39.87
2019-02-26T21:08:35.364Z,40.20
2019-02-26T21:11:04.847Z,41.97
2019-02-26T21:13:35.742Z,41.27
2019-02-26T21:16:05.142Z,37.03
2019-02-26T21:18:34.509Z,39.40
2019-02-26T21:21:04.050Z,41.77
2019-02-26T21:23:33.607Z,45.37
2019-02-26T21:26:03.033Z,45.57
2019-02-26T21:28:33.742Z,45.07
2019-02-26T21:31:03.845Z,43.27
2019-02-26T21:33:33.323Z,40.87
2019-02-26T21:36:02.765Z,39.67
2019-02-26T21:38:33.777Z,44.43
2019-02-26T21:41:03.134Z,38.00
2019-02-26T21:43:34.726Z,41.00
2019-02-26T21:46:03.673Z,40.47
2019-02-26T21:48:36.549Z,42.90
2019-02-26T21:51:04.482Z,44.90
2019-02-26T21:53:33.955Z,39.90
2019-02-26T21:56:03.398Z,39.63
2019-02-26T21:58:32.808Z,38.03
2019-02-26T22:01:02.278Z,37.07
2019-02-26T22:03:31.669Z,36.30
2019-02-26T22:06:05.240Z,38.40
2019-02-26T22:08:32.186Z,36.83
2019-02-26T22:11:01.597Z,35.23
2019-02-26T22:13:31.107Z,35.67
2019-02-26T22:16:00.682Z,35.57
2019-02-26T22:18:34.023Z,35.20
2019-02-26T22:21:01.254Z,36.47
2019-02-26T22:23:34.020Z,37.17
2019-02-26T22:26:01.962Z,37.57
2019-02-26T22:28:31.437Z,37.50
2019-02-26T22:31:00.906Z,35.67
2019-02-26T22:33:30.387Z,36.13
2019-02-26T22:36:00.265Z,34.83
2019-02-26T22:38:29.816Z,36.23
2019-02-26T22:41:02.250Z,36.10
2019-02-26T22:43:30.999Z,35.27
2019-02-26T22:46:00.989Z,32.57
2019-02-26T22:48:31.183Z,32.77
2019-02-26T22:51:00.588Z,32.93
2019-02-26T22:53:30.223Z,31.57
2019-02-26T22:55:59.627Z,30.73
2019-02-26T22:58:29.178Z,31.60
2019-02-26T23:01:03.213Z,32.37
2019-02-26T23:03:32.725Z,33.43
2019-02-26T23:06:02.629Z,33.10
2019-02-26T23:08:32.836Z,32.37
2019-02-26T23:11:05.362Z,33.50
2019-02-26T23:13:36.439Z,31.07
2019-02-26T23:16:06.087Z,30.57
2019-02-26T23:18:35.691Z,30.37
2019-02-26T23:21:06.218Z,30.90
2019-02-26T23:23:35.687Z,29.00
2019-02-26T23:26:08.628Z,30.07
2019-02-26T23:28:36.935Z,27.40
2019-02-26T23:31:07.443Z,26.77
2019-02-26T23:33:37.048Z,25.37
2019-02-26T23:36:06.419Z,22.83
2019-02-26T23:38:35.958Z,21.47
2019-02-26T23:41:05.482Z,21.10
2019-02-26T23:43:34.952Z,19.63
2019-02-26T23:46:05.734Z,19.60
2019-02-26T23:48:35.287Z,19.87
2019-02-26T23:51:04.789Z,20.67
2019-02-26T23:53:34.651Z,20.83
2019-02-26T23:56:04.239Z,19.47
2019-02-26T23:58:33.642Z,19.67
